Time;durP1;ratioP1;P1;durP2;ratioP2;P2;SDS_P1;SDS_P2;PMS_P1;PMS_P2;Temp;Humidity;BMP_temperature;BMP_pressure;BME280_temperature;BME280_humidity;BME280_pressure;Samples;Min_cycle;Max_cycle;Signal;HPM_P1;HPM_P2
2023/10/10 00:00:04;;;;;;;25.00;12.67;;;14.10;99.90;;;;;;5103200;28;20548;-69
2023/10/10 00:02:32;;;;;;;26.50;12.80;;;14.10;99.90;;;;;;5095352;28;20572;-69
2023/10/10 00:05:03;;;;;;;23.37;12.60;;;14.10;99.90;;;;;;5102367;28;20920;-68
2023/10/10 00:07:35;;;;;;;19.53;11.53;;;14.10;99.90;;;;;;5094746;28;20469;-68
2023/10/10 00:10:01;;;;;;;21.60;10.77;;;14.10;99.90;;;;;;5091271;28;20555;-69
2023/10/10 00:12:30;;;;;;;18.70;11.50;;;14.00;99.90;;;;;;5105208;28;20442;-69
2023/10/10 00:14:58;;;;;;;18.87;11.23;;;14.00;99.90;;;;;;5103134;28;20439;-69
2023/10/10 00:17:29;;;;;;;25.57;12.83;;;13.90;99.90;;;;;;5099560;28;20441;-69
2023/10/10 00:20:15;;;;;;;20.20;12.43;;;13.90;99.90;;;;;;5093002;28;20461;-68
2023/10/10 00:22:46;;;;;;;23.47;12.83;;;13.80;99.90;;;;;;5098144;28;20418;-69
2023/10/10 00:25:23;;;;;;;20.10;11.43;;;13.80;99.90;;;;;;5103587;28;20646;-69
2023/10/10 00:27:56;;;;;;;23.60;13.60;;;13.70;99.90;;;;;;5103867;28;20440;-68
2023/10/10 00:30:27;;;;;;;23.50;12.60;;;13.60;99.90;;;;;;5100238;28;20447;-68
2023/10/10 00:32:53;;;;;;;25.47;13.93;;;13.60;99.90;;;;;;5103762;28;20476;-69
2023/10/10 00:35:23;;;;;;;23.73;12.27;;;13.50;99.90;;;;;;5091041;28;20906;-68
2023/10/10 00:37:51;;;;;;;20.83;12.33;;;13.50;99.90;;;;;;5090269;28;20478;-69
2023/10/10 00:40:29;;;;;;;21.20;12.53;;;13.50;99.90;;;;;;5099138;28;20521;-69
2023/10/10 00:42:58;;;;;;;27.37;13.20;;;13.40;99.90;;;;;;5103923;28;20842;-69
2023/10/10 00:45:29;;;;;;;33.50;13.40;;;13.30;99.90;;;;;;5104903;28;20424;-68
2023/10/10 00:48:00;;;;;;;22.60;13.40;;;13.30;99.90;;;;;;5103881;28;20420;-69
2023/10/10 00:50:33;;;;;;;24.27;13.53;;;13.30;99.90;;;;;;5105541;28;20476;-69
2023/10/10 00:53:01;;;;;;;28.27;15.30;;;13.30;99.90;;;;;;5103409;28;20821;-69
2023/10/10 00:55:33;;;;;;;23.33;14.60;;;13.30;99.90;;;;;;5105640;28;20453;-68
2023/10/10 00:58:01;;;;;;;24.00;13.40;;;13.30;99.90;;;;;;5105686;28;20441;-68
2023/10/10 01:00:29;;;;;;;29.80;13.30;;;13.30;99.90;;;;;;5108463;28;20475;-68
2023/10/10 01:03:06;;;;;;;24.73;13.80;;;13.20;99.90;;;;;;5094607;28;20511;-68
2023/10/10 01:05:44;;;;;;;25.10;13.50;;;13.20;99.90;;;;;;5096118;28;20553;-68
2023/10/10 01:08:17;;;;;;;23.93;12.93;;;13.20;99.90;;;;;;5106965;28;20510;-68
2023/10/10 01:10:46;;;;;;;20.57;12.83;;;13.20;99.90;;;;;;5097194;28;20443;-68
2023/10/10 01:13:13;;;;;;;21.37;12.73;;;13.20;99.90;;;;;;5107252;28;20449;-68
2023/10/10 01:15:48;;;;;;;25.77;13.20;;;13.20;99.90;;;;;;5107137;28;20436;-69
2023/10/10 01:18:15;;;;;;;34.33;13.30;;;13.10;99.90;;;;;;5101436;28;20523;-69
2023/10/10 01:20:46;;;;;;;29.40;12.43;;;13.10;99.90;;;;;;5109685;28;20527;-68
2023/10/10 01:23:15;;;;;;;31.23;13.90;;;13.10;99.90;;;;;;5107343;28;20906;-69
2023/10/10 01:25:44;;;;;;;23.27;13.40;;;13.10;99.90;;;;;;5104548;28;20424;-68
2023/10/10 01:28:23;;;;;;;25.13;13.13;;;13.00;99.90;;;;;;5106699;28;20515;-68
2023/10/10 01:30:59;;;;;;;28.10;13.63;;;13.00;99.90;;;;;;5109430;28;20437;-69
2023/10/10 01:33:35;;;;;;;24.50;13.20;;;13.00;99.90;;;;;;5106077;28;20490;-69
2023/10/10 01:36:04;;;;;;;31.10;14.37;;;13.00;99.90;;;;;;5100013;28;20478;-69
2023/10/10 01:39:07;;;;;;;23.50;13.90;;;13.00;99.90;;;;;;5092003;28;20446;-68
2023/10/10 01:41:38;;;;;;;27.50;14.10;;;12.90;99.90;;;;;;5097673;28;20454;-68
2023/10/10 01:44:11;;;;;;;24.73;14.53;;;12.80;99.90;;;;;;5103799;28;20456;-69
2023/10/10 01:46:37;;;;;;;30.33;13.87;;;12.80;99.90;;;;;;5098644;28;20477;-68
2023/10/10 01:49:08;;;;;;;23.40;13.83;;;12.80;99.90;;;;;;5107362;27;20819;-68
2023/10/10 01:51:42;;;;;;;24.23;12.73;;;12.70;99.90;;;;;;5109574;28;20979;-69
2023/10/10 01:54:14;;;;;;;27.17;14.47;;;12.70;99.90;;;;;;5107333;28;20966;-69
2023/10/10 01:56:40;;;;;;;24.90;13.80;;;12.70;99.90;;;;;;5101501;28;20523;-68
2023/10/10 01:59:13;;;;;;;24.03;14.17;;;12.70;99.90;;;;;;5092721;28;20446;-69
2023/10/10 02:01:40;;;;;;;34.03;14.03;;;12.70;99.90;;;;;;5100938;28;20465;-68
2023/10/10 02:04:07;;;;;;;24.13;13.07;;;12.70;99.90;;;;;;5103663;28;20979;-69
2023/10/10 02:06:35;;;;;;;25.07;13.27;;;12.60;99.90;;;;;;5105331;28;20519;-68
2023/10/10 02:09:11;;;;;;;21.27;13.17;;;12.60;99.90;;;;;;5105816;28;20446;-68
2023/10/10 02:11:39;;;;;;;29.03;14.53;;;12.60;99.90;;;;;;5093747;28;20460;-68
2023/10/10 02:14:11;;;;;;;22.27;13.57;;;12.60;99.90;;;;;;5107757;28;20464;-68
2023/10/10 02:16:40;;;;;;;21.47;12.30;;;12.60;99.90;;;;;;5108502;28;20492;-69
2023/10/10 02:19:15;;;;;;;29.57;13.63;;;12.50;99.90;;;;;;5096715;28;20455;-69
2023/10/10 02:21:47;;;;;;;20.40;12.60;;;12.50;99.90;;;;;;5105688;28;20456;-69
2023/10/10 02:24:38;;;;;;;23.87;12.67;;;12.50;99.90;;;;;;5108097;28;20417;-68
2023/10/10 02:27:06;;;;;;;22.10;12.83;;;12.50;99.90;;;;;;5107886;28;20493;-68
2023/10/10 02:29:36;;;;;;;20.70;12.67;;;12.50;99.90;;;;;;5109423;28;20446;-68
2023/10/10 02:32:12;;;;;;;23.77;13.10;;;12.50;99.90;;;;;;5104410;28;20451;-68
2023/10/10 02:34:42;;;;;;;32.60;13.60;;;12.40;99.90;;;;;;5087627;28;20450;-69
2023/10/10 02:37:41;;;;;;;22.10;12.70;;;12.40;99.90;;;;;;5105632;28;20998;-68
2023/10/10 02:40:07;;;;;;;24.00;13.47;;;12.40;99.90;;;;;;5108303;28;21021;-69
2023/10/10 02:42:34;;;;;;;24.30;13.53;;;12.30;99.90;;;;;;5097544;28;20495;-69
2023/10/10 02:45:00;;;;;;;21.47;12.60;;;12.30;99.90;;;;;;5108787;28;20994;-69
2023/10/10 02:47:32;;;;;;;23.03;12.27;;;12.30;99.90;;;;;;5109127;28;20514;-69
2023/10/10 02:50:09;;;;;;;21.77;13.00;;;12.30;99.90;;;;;;5109182;28;20447;-68
2023/10/10 02:52:38;;;;;;;26.03;12.50;;;12.20;99.90;;;;;;5090813;28;20476;-68
2023/10/10 02:55:12;;;;;;;23.83;14.03;;;12.20;99.90;;;;;;5108493;28;21048;-68
2023/10/10 02:57:41;;;;;;;20.23;13.47;;;12.20;99.90;;;;;;5109742;28;20473;-68
2023/10/10 03:00:27;;;;;;;21.87;12.93;;;12.20;99.90;;;;;;5099645;28;20483;-68
2023/10/10 03:02:54;;;;;;;24.17;14.17;;;12.10;99.90;;;;;;5109826;28;20449;-68
2023/10/10 03:05:38;;;;;;;24.80;12.80;;;12.10;99.90;;;;;;5108981;28;20481;-68
2023/10/10 03:08:12;;;;;;;20.60;12.97;;;12.10;99.90;;;;;;5108380;27;20445;-68
2023/10/10 03:10:44;;;;;;;27.43;14.67;;;12.10;99.90;;;;;;5095440;28;20496;-68
2023/10/10 03:13:27;;;;;;;27.73;14.30;;;12.00;99.90;;;;;;5092765;28;20477;-68
2023/10/10 03:15:56;;;;;;;23.50;14.10;;;12.00;99.90;;;;;;5109908;28;20554;-69
2023/10/10 03:18:29;;;;;;;23.60;14.90;;;12.00;99.90;;;;;;5095339;28;20443;-68
2023/10/10 03:21:36;;;;;;;24.30;13.20;;;12.00;99.90;;;;;;5091113;28;20576;-68
2023/10/10 03:24:07;;;;;;;19.97;12.83;;;12.00;99.90;;;;;;5103474;28;20441;-70
2023/10/10 03:29:26;;;;;;;22.30;13.47;;;11.90;99.90;;;;;;5081018;28;20454;-68
2023/10/10 03:32:19;;;;;;;27.30;13.80;;;11.90;99.90;;;;;;5102224;28;20453;-69
2023/10/10 03:34:44;;;;;;;26.10;14.63;;;11.90;99.90;;;;;;5097234;28;20517;-70
2023/10/10 03:37:27;;;;;;;30.13;15.60;;;11.90;99.90;;;;;;5099453;28;20487;-70
2023/10/10 03:39:54;;;;;;;27.47;14.80;;;11.80;99.90;;;;;;5109795;28;20485;-69
2023/10/10 05:23:58;;;;;;;28.77;17.17;;;11.10;99.90;;;;;;5094493;28;20517;-69
2023/10/10 05:26:25;;;;;;;31.33;16.40;;;11.10;99.90;;;;;;5094471;28;21000;-69
2023/10/10 05:28:52;;;;;;;36.17;17.80;;;11.10;99.90;;;;;;5093720;28;20450;-69
2023/10/10 05:31:21;;;;;;;31.70;17.47;;;11.00;99.90;;;;;;5093773;28;20442;-70
2023/10/10 05:33:48;;;;;;;29.50;17.63;;;11.00;99.90;;;;;;5093452;28;20511;-69
2023/10/10 05:36:18;;;;;;;35.07;17.57;;;11.00;99.90;;;;;;5092224;28;20914;-69
2023/10/10 05:38:46;;;;;;;30.20;16.07;;;11.00;99.90;;;;;;5091884;28;20919;-69
2023/10/10 05:41:12;;;;;;;38.57;16.33;;;11.00;99.90;;;;;;5092546;28;20586;-69
2023/10/10 05:43:39;;;;;;;28.20;15.20;;;11.00;99.90;;;;;;5091881;28;20940;-69
2023/10/10 05:46:06;;;;;;;26.80;15.73;;;10.90;99.90;;;;;;5093207;28;20474;-69
2023/10/10 05:48:32;;;;;;;30.83;17.00;;;10.90;99.90;;;;;;5093160;28;20470;-69
2023/10/10 05:50:59;;;;;;;39.63;15.67;;;10.90;99.90;;;;;;5093372;28;20442;-69
2023/10/10 05:53:32;;;;;;;29.47;15.83;;;10.90;99.90;;;;;;5090037;28;20454;-69
2023/10/10 05:56:01;;;;;;;25.17;15.00;;;10.90;99.90;;;;;;5092806;28;20471;-69
2023/10/10 05:58:38;;;;;;;23.10;14.13;;;10.90;99.90;;;;;;5093442;28;20640;-69
2023/10/10 06:01:05;;;;;;;28.73;14.33;;;10.90;99.90;;;;;;5093367;28;20532;-69
2023/10/10 06:03:32;;;;;;;35.67;14.20;;;11.00;99.90;;;;;;5094343;28;20438;-69
2023/10/10 06:06:03;;;;;;;36.30;15.93;;;11.00;99.90;;;;;;5094158;28;20489;-69
2023/10/10 06:08:31;;;;;;;28.43;16.53;;;11.00;99.90;;;;;;5093683;28;20439;-69
2023/10/10 06:10:59;;;;;;;29.80;16.67;;;11.10;99.90;;;;;;5093722;28;20597;-69
2023/10/10 06:13:29;;;;;;;30.10;16.87;;;11.10;99.90;;;;;;5094703;28;20446;-69
2023/10/10 06:15:55;;;;;;;27.63;16.40;;;11.20;99.90;;;;;;5093186;28;20474;-69
2023/10/10 06:18:21;;;;;;;32.43;16.50;;;11.20;99.90;;;;;;5093459;28;20443;-69
2023/10/10 06:20:50;;;;;;;31.60;17.03;;;11.30;99.90;;;;;;5093785;28;20483;-69
2023/10/10 06:23:17;;;;;;;38.17;17.13;;;11.30;99.90;;;;;;5095118;28;20451;-69
2023/10/10 06:25:45;;;;;;;32.07;16.37;;;11.30;99.90;;;;;;5094540;28;20451;-69
2023/10/10 06:28:22;;;;;;;28.20;15.97;;;11.50;99.90;;;;;;5094756;28;20547;-69
2023/10/10 06:30:52;;;;;;;32.47;17.87;;;11.60;99.90;;;;;;5093417;28;20463;-69
2023/10/10 06:33:27;;;;;;;32.40;16.50;;;11.70;99.90;;;;;;5094203;28;20533;-69
2023/10/10 06:36:01;;;;;;;28.63;17.87;;;11.80;99.90;;;;;;5092841;28;20474;-69
2023/10/10 06:38:27;;;;;;;34.23;16.70;;;11.90;99.90;;;;;;5092415;28;20946;-69
2023/10/10 06:40:56;;;;;;;42.40;19.40;;;12.10;99.90;;;;;;5091946;28;20579;-69
2023/10/10 06:43:23;;;;;;;37.87;18.50;;;12.30;99.90;;;;;;5095246;28;20931;-69
2023/10/10 06:45:54;;;;;;;29.37;17.17;;;12.40;99.90;;;;;;5093900;28;20467;-70
2023/10/10 06:48:22;;;;;;;30.40;17.70;;;12.60;99.90;;;;;;5095415;28;20453;-69
2023/10/10 06:50:50;;;;;;;35.20;18.37;;;12.80;99.90;;;;;;5093890;28;20545;-69
2023/10/10 06:53:35;;;;;;;30.00;17.30;;;13.10;99.90;;;;;;5094235;28;20807;-69
2023/10/10 06:56:15;;;;;;;37.23;17.47;;;13.20;99.90;;;;;;5092805;28;20473;-69
2023/10/10 06:58:44;;;;;;;35.23;16.30;;;13.40;99.90;;;;;;5090441;28;20455;-69
2023/10/10 07:01:11;;;;;;;32.72;16.80;;;13.60;99.90;;;;;;5092634;28;20444;-70
2023/10/10 07:03:39;;;;;;;23.43;14.90;;;13.60;99.90;;;;;;5093526;28;20201;-70
2023/10/10 07:06:08;;;;;;;22.10;15.30;;;13.60;99.90;;;;;;5094600;28;20502;-70
2023/10/10 07:08:35;;;;;;;28.47;16.43;;;13.80;99.90;;;;;;5094745;28;20993;-70
2023/10/10 07:11:02;;;;;;;27.23;14.73;;;14.00;99.90;;;;;;5091644;28;20529;-69
2023/10/10 07:13:30;;;;;;;27.00;16.07;;;14.30;99.90;;;;;;5092069;28;20443;-70
2023/10/10 07:15:57;;;;;;;35.20;16.17;;;14.60;99.90;;;;;;5092873;28;20561;-70
2023/10/10 07:18:23;;;;;;;42.37;18.20;;;15.10;99.90;;;;;;5092900;28;20574;-70
2023/10/10 07:21:08;;;;;;;27.53;15.60;;;15.50;99.90;;;;;;5091551;28;20995;-69
2023/10/10 07:23:38;;;;;;;28.33;16.10;;;15.80;99.90;;;;;;5094430;28;20982;-70
2023/10/10 07:26:06;;;;;;;27.00;15.90;;;16.20;99.90;;;;;;5093131;28;20462;-70
2023/10/10 07:28:47;;;;;;;27.83;15.63;;;16.50;99.90;;;;;;5095219;28;20906;-69
2023/10/10 07:31:18;;;;;;;25.33;15.20;;;16.70;99.90;;;;;;5093259;28;20451;-69
2023/10/10 07:33:54;;;;;;;23.37;14.03;;;17.00;99.90;;;;;;5091498;28;20501;-68
2023/10/10 07:36:24;;;;;;;21.77;13.33;;;17.20;99.90;;;;;;5091065;28;20452;-68
2023/10/10 07:38:54;;;;;;;24.90;12.97;;;17.30;99.90;;;;;;5092103;28;20462;-69
2023/10/10 07:41:21;;;;;;;23.60;14.90;;;17.30;99.90;;;;;;5094185;28;20461;-69
2023/10/10 07:43:51;;;;;;;26.93;14.20;;;17.40;99.90;;;;;;5091236;28;20421;-68
2023/10/10 07:46:22;;;;;;;22.87;14.10;;;17.30;99.90;;;;;;5092481;28;20903;-69
2023/10/10 07:48:53;;;;;;;21.53;14.73;;;17.20;99.90;;;;;;5094337;28;20418;-68
2023/10/10 07:51:27;;;;;;;20.27;12.63;;;17.10;99.90;;;;;;5096006;28;20959;-68
2023/10/10 07:54:00;;;;;;;17.70;11.80;;;17.00;99.90;;;;;;5094236;28;20671;-69
2023/10/10 07:56:30;;;;;;;19.80;13.03;;;17.00;99.90;;;;;;5096036;28;20448;-68
2023/10/10 07:58:58;;;;;;;22.83;13.07;;;16.90;99.90;;;;;;5093280;28;20500;-68
2023/10/10 08:01:27;;;;;;;17.13;11.53;;;16.70;99.90;;;;;;5090810;28;20531;-69
2023/10/10 08:03:54;;;;;;;20.17;13.30;;;16.60;99.90;;;;;;5092827;28;20875;-68
2023/10/10 08:06:22;;;;;;;17.10;12.20;;;16.50;99.90;;;;;;5096139;28;20524;-69
2023/10/10 08:09:09;;;;;;;19.00;12.23;;;16.30;99.90;;;;;;5094663;28;20421;-69
2023/10/10 08:11:36;;;;;;;26.73;13.10;;;16.20;99.90;;;;;;5093588;28;20497;-68
2023/10/10 08:14:07;;;;;;;22.80;13.17;;;15.90;99.90;;;;;;5094835;28;20429;-69
2023/10/10 08:16:36;;;;;;;22.93;14.80;;;15.80;99.90;;;;;;5091930;28;20987;-69
2023/10/10 08:19:07;;;;;;;25.30;14.00;;;15.90;99.90;;;;;;5092421;28;20494;-69
2023/10/10 08:21:38;;;;;;;28.03;15.70;;;15.80;99.90;;;;;;5093231;28;20820;-69
2023/10/10 08:24:06;;;;;;;26.80;13.83;;;15.80;99.90;;;;;;5094996;28;20433;-68
2023/10/10 08:26:39;;;;;;;28.00;15.80;;;15.80;99.90;;;;;;5096402;28;20448;-68
2023/10/10 08:29:08;;;;;;;31.40;15.87;;;15.70;99.90;;;;;;5094745;28;20428;-70
2023/10/10 08:31:36;;;;;;;26.77;15.70;;;15.80;99.90;;;;;;5094903;28;20951;-70
2023/10/10 08:34:03;;;;;;;18.93;13.73;;;16.00;99.90;;;;;;5090353;28;20457;-70
2023/10/10 08:36:30;;;;;;;24.43;14.97;;;16.20;99.90;;;;;;5091231;28;20454;-70
2023/10/10 08:38:58;;;;;;;22.47;14.50;;;16.40;99.90;;;;;;5090996;28;21028;-69
2023/10/10 08:41:26;;;;;;;23.00;13.80;;;16.50;99.90;;;;;;5092998;28;20610;-70
2023/10/10 08:43:57;;;;;;;26.13;14.83;;;16.60;99.90;;;;;;5091638;28;20513;-69
2023/10/10 08:46:29;;;;;;;26.83;15.77;;;16.70;99.90;;;;;;5096443;28;20463;-69
2023/10/10 08:48:58;;;;;;;25.70;15.20;;;16.80;99.90;;;;;;5089507;28;20447;-69
2023/10/10 08:51:31;;;;;;;35.30;15.87;;;16.80;99.90;;;;;;5096961;28;20420;-70
2023/10/10 08:53:57;;;;;;;27.70;15.80;;;16.80;99.90;;;;;;5093461;28;21183;-70
2023/10/10 08:56:25;;;;;;;28.10;15.13;;;16.90;99.90;;;;;;5096633;28;20478;-70
2023/10/10 08:58:52;;;;;;;29.70;15.97;;;16.90;99.90;;;;;;5094314;28;20877;-70
2023/10/10 09:01:18;;;;;;;25.90;15.47;;;17.00;99.90;;;;;;5096138;28;20464;-70
2023/10/10 09:03:46;;;;;;;23.77;15.00;;;17.10;99.90;;;;;;5091960;28;20461;-70
2023/10/10 09:06:19;;;;;;;24.20;15.17;;;17.00;99.90;;;;;;5093176;28;20537;-70
2023/10/10 09:08:49;;;;;;;25.17;14.80;;;16.90;99.90;;;;;;5094992;28;20576;-70
2023/10/10 09:11:16;;;;;;;24.57;14.97;;;16.90;99.90;;;;;;5093668;28;20450;-70
2023/10/10 09:13:51;;;;;;;18.53;14.53;;;16.90;99.90;;;;;;5094755;28;20841;-70
2023/10/10 09:16:20;;;;;;;26.00;15.13;;;17.20;99.90;;;;;;5096635;28;20539;-70
2023/10/10 09:19:08;;;;;;;30.60;15.20;;;17.30;99.90;;;;;;5093877;28;20425;-70
2023/10/10 09:21:46;;;;;;;24.63;14.57;;;17.50;99.90;;;;;;5096783;28;20481;-70
2023/10/10 09:24:27;;;;;;;25.33;14.93;;;17.70;99.90;;;;;;5099967;28;20457;-70
2023/10/10 09:26:56;;;;;;;23.00;14.70;;;17.90;99.90;;;;;;5095325;28;20592;-70
2023/10/10 09:29:30;;;;;;;33.30;14.33;;;18.10;99.90;;;;;;5093909;28;20447;-70
2023/10/10 09:31:59;;;;;;;30.23;14.70;;;18.00;99.90;;;;;;5097257;28;20959;-70
2023/10/10 09:34:35;;;;;;;24.27;14.27;;;18.00;99.90;;;;;;5095709;28;20466;-70
2023/10/10 09:37:07;;;;;;;24.43;13.97;;;18.00;99.90;;;;;;5092859;28;20847;-70
2023/10/10 09:39:36;;;;;;;27.60;14.53;;;17.90;99.90;;;;;;5094849;28;20450;-69
2023/10/10 09:42:07;;;;;;;33.67;14.43;;;18.10;99.90;;;;;;5097171;28;20478;-69
2023/10/10 09:44:53;;;;;;;23.13;14.80;;;18.30;99.90;;;;;;5095867;28;20461;-69
2023/10/10 09:52:53;;;;;;;25.63;15.00;;;19.00;99.90;;;;;;5096521;28;20526;-70
2023/10/10 09:58:16;;;;;;;21.03;14.10;;;19.10;99.90;;;;;;5098318;28;20449;-69
2023/10/10 10:00:46;;;;;;;26.83;13.10;;;19.30;99.90;;;;;;5096134;28;20541;-70
2023/10/10 10:03:31;;;;;;;22.40;13.97;;;19.60;99.90;;;;;;5098536;28;20494;-69
2023/10/10 10:06:18;;;;;;;22.03;13.07;;;19.80;99.90;;;;;;5094003;28;20479;-71
2023/10/10 10:09:16;;;;;;;21.43;13.23;;;19.90;99.90;;;;;;5098056;28;20540;-68
2023/10/10 10:11:56;;;;;;;23.67;13.50;;;20.00;99.90;;;;;;5097546;28;20507;-68
2023/10/10 10:14:35;;;;;;;23.10;12.40;;;20.20;99.90;;;;;;5100532;28;20474;-69
2023/10/10 10:17:13;;;;;;;29.80;13.23;;;20.40;99.90;;;;;;5098706;28;20497;-68
2023/10/10 10:19:45;;;;;;;22.63;12.67;;;20.50;99.90;;;;;;5097471;28;20519;-69
2023/10/10 10:22:17;;;;;;;27.37;13.80;;;20.50;99.90;;;;;;5099613;28;20587;-69
2023/10/10 10:25:21;;;;;;;19.63;13.17;;;20.40;99.90;;;;;;5100322;28;20915;-69
2023/10/10 10:27:49;;;;;;;26.67;12.30;;;20.40;99.90;;;;;;5098251;28;20549;-69
2023/10/10 10:30:39;;;;;;;24.20;12.37;;;20.40;99.90;;;;;;5100041;28;20516;-69
2023/10/10 10:33:09;;;;;;;19.77;11.67;;;20.60;99.90;;;;;;5102747;28;20455;-69
2023/10/10 10:36:15;;;;;;;26.87;13.07;;;20.50;99.90;;;;;;5096374;28;20796;-69
2023/10/10 10:41:42;;;;;;;32.70;12.70;;;21.10;99.90;;;;;;5095295;28;20567;-69
2023/10/10 10:44:12;;;;;;;22.57;12.20;;;21.40;99.90;;;;;;5099557;28;20458;-69
2023/10/10 10:46:47;;;;;;;27.33;13.17;;;21.70;99.90;;;;;;5101230;28;20485;-69
2023/10/10 10:49:14;;;;;;;21.03;11.57;;;21.80;99.90;;;;;;5100425;28;20446;-69
2023/10/10 10:51:47;;;;;;;25.20;12.80;;;21.70;99.90;;;;;;5100867;28;20466;-69
2023/10/10 10:54:35;;;;;;;24.63;12.80;;;21.50;99.90;;;;;;5092982;28;20870;-69
2023/10/10 10:57:02;;;;;;;20.53;12.27;;;21.60;99.90;;;;;;5090338;28;20475;-70
2023/10/10 10:59:36;;;;;;;23.13;11.80;;;21.70;99.90;;;;;;5092563;28;20475;-70
2023/10/10 11:02:15;;;;;;;21.77;11.53;;;21.70;99.90;;;;;;5090606;28;20563;-69
2023/10/10 11:04:49;;;;;;;20.23;10.93;;;21.70;99.90;;;;;;5093186;28;20535;-70
2023/10/10 11:07:26;;;;;;;24.10;10.30;;;21.70;99.90;;;;;;5098006;28;20581;-69
2023/10/10 11:09:54;;;;;;;20.30;9.40;;;21.60;99.90;;;;;;5097083;28;20459;-70
2023/10/10 11:12:31;;;;;;;17.23;9.00;;;21.70;99.90;;;;;;5091518;28;20458;-70
2023/10/10 11:15:10;;;;;;;21.63;9.17;;;21.70;99.90;;;;;;5090178;28;20450;-70
2023/10/10 11:17:39;;;;;;;11.77;7.43;;;21.80;99.90;;;;;;5094036;28;21058;-70
2023/10/10 11:20:29;;;;;;;15.00;8.30;;;22.00;99.90;;;;;;5095243;28;20746;-69
2023/10/10 11:23:06;;;;;;;16.17;8.43;;;22.20;99.90;;;;;;5098997;28;21007;-70
2023/10/10 11:25:41;;;;;;;18.23;8.20;;;22.30;99.90;;;;;;5095528;28;20541;-69
2023/10/10 11:28:21;;;;;;;23.90;9.40;;;22.40;99.90;;;;;;5099424;28;20884;-70
2023/10/10 11:30:50;;;;;;;18.30;8.03;;;22.30;99.90;;;;;;5100236;28;20446;-69
2023/10/10 11:33:46;;;;;;;23.93;8.17;;;22.20;99.90;;;;;;5099227;28;20513;-70
2023/10/10 11:36:37;;;;;;;16.93;8.43;;;22.20;99.90;;;;;;5095321;28;20967;-69
2023/10/10 11:39:16;;;;;;;15.67;7.47;;;22.20;99.90;;;;;;5099601;28;20443;-69
2023/10/10 11:41:45;;;;;;;15.00;8.10;;;22.20;99.90;;;;;;5100983;28;20448;-70
2023/10/10 11:44:18;;;;;;;13.60;7.53;;;22.10;99.90;;;;;;5093034;28;20458;-70
2023/10/10 11:46:45;;;;;;;11.00;5.97;;;22.00;99.90;;;;;;5093271;28;20465;-69
2023/10/10 11:49:16;;;;;;;16.27;7.40;;;21.90;99.90;;;;;;5095552;28;20804;-70
2023/10/10 11:51:42;;;;;;;13.80;7.00;;;21.80;99.90;;;;;;5101810;28;20477;-70
2023/10/10 11:54:09;;;;;;;13.63;6.70;;;21.70;99.90;;;;;;5099905;28;20910;-70
2023/10/10 11:56:36;;;;;;;16.50;7.53;;;21.70;99.90;;;;;;5102605;28;20457;-70
2023/10/10 11:59:09;;;;;;;14.03;7.00;;;21.70;99.90;;;;;;5099492;28;20989;-70
2023/10/10 12:01:49;;;;;;;14.53;7.40;;;21.60;99.90;;;;;;5095242;28;21163;-70
2023/10/10 12:04:30;;;;;;;15.07;7.20;;;21.40;99.90;;;;;;5095269;28;20998;-70
2023/10/10 12:06:59;;;;;;;16.47;8.07;;;21.40;99.90;;;;;;5098552;28;20480;-70
2023/10/10 12:09:26;;;;;;;16.00;8.00;;;21.50;99.90;;;;;;5095588;28;20940;-70
2023/10/10 12:11:58;;;;;;;17.00;7.80;;;21.50;99.90;;;;;;5091165;28;20519;-70
2023/10/10 12:14:29;;;;;;;16.10;7.00;;;21.50;99.90;;;;;;5102478;28;20836;-70
2023/10/10 12:16:58;;;;;;;16.40;7.50;;;21.50;99.90;;;;;;5099527;28;21000;-70
2023/10/10 12:19:25;;;;;;;16.93;8.07;;;21.50;99.90;;;;;;5090581;28;20454;-70
2023/10/10 12:21:52;;;;;;;17.20;7.30;;;21.60;99.90;;;;;;5090329;28;20836;-70
2023/10/10 12:24:19;;;;;;;17.57;6.30;;;21.70;99.90;;;;;;5090482;28;20442;-71
2023/10/10 12:26:45;;;;;;;16.37;7.57;;;21.80;99.90;;;;;;5090506;28;20520;-70
2023/10/10 12:29:14;;;;;;;16.57;8.13;;;22.00;99.90;;;;;;5091408;28;21008;-72
2023/10/10 12:31:42;;;;;;;17.90;7.17;;;21.90;99.90;;;;;;5091392;28;20457;-72
2023/10/10 12:34:09;;;;;;;17.17;7.50;;;21.90;99.90;;;;;;5087937;28;20848;-72
2023/10/10 12:36:36;;;;;;;17.20;7.20;;;22.00;99.90;;;;;;5104171;28;20492;-72
2023/10/10 12:39:04;;;;;;;18.43;7.07;;;22.10;99.90;;;;;;5101145;28;20530;-72
2023/10/10 12:41:35;;;;;;;16.03;6.70;;;21.90;99.90;;;;;;5089728;28;20509;-72
2023/10/10 12:44:06;;;;;;;19.80;7.17;;;21.90;99.90;;;;;;5090670;28;20627;-71
2023/10/10 12:46:34;;;;;;;13.87;7.00;;;21.80;99.90;;;;;;5095308;28;20465;-72
2023/10/10 12:49:02;;;;;;;17.40;7.40;;;21.90;99.90;;;;;;5101663;28;20446;-71
2023/10/10 12:51:30;;;;;;;13.60;6.70;;;22.00;99.90;;;;;;5104211;28;20759;-71
2023/10/10 12:54:04;;;;;;;21.70;7.20;;;22.40;99.90;;;;;;5106348;28;20441;-72
2023/10/10 12:56:30;;;;;;;13.13;7.40;;;22.80;99.90;;;;;;5104280;28;20474;-72
2023/10/10 12:59:03;;;;;;;14.87;7.40;;;23.10;99.90;;;;;;5105767;27;20522;-72
2023/10/10 13:01:32;;;;;;;13.00;7.10;;;23.40;99.90;;;;;;5098785;28;20437;-73
2023/10/10 13:04:07;;;;;;;11.60;7.20;;;23.50;99.90;;;;;;5100472;27;20493;-71
2023/10/10 13:06:36;;;;;;;18.80;7.07;;;23.60;99.90;;;;;;5099092;28;20469;-71
2023/10/10 13:09:05;;;;;;;14.97;6.03;;;23.50;99.90;;;;;;5103147;28;20451;-72
2023/10/10 13:11:35;;;;;;;27.90;8.07;;;23.50;99.90;;;;;;5098926;28;20446;-71
2023/10/10 13:14:10;;;;;;;15.50;6.90;;;23.60;99.90;;;;;;5106064;27;20531;-71
2023/10/10 13:16:52;;;;;;;16.43;7.90;;;23.60;99.90;;;;;;5092759;28;20526;-72
2023/10/10 13:19:20;;;;;;;16.67;7.07;;;23.60;99.90;;;;;;5105791;28;20442;-72
2023/10/10 13:21:52;;;;;;;13.20;7.50;;;23.40;99.90;;;;;;5107233;28;20445;-71
2023/10/10 13:24:20;;;;;;;17.43;7.30;;;23.50;99.90;;;;;;5107312;28;20489;-71
2023/10/10 13:26:49;;;;;;;13.87;6.90;;;23.50;99.90;;;;;;5107724;28;20504;-71
2023/10/10 13:29:17;;;;;;;13.53;7.13;;;23.50;99.90;;;;;;5106828;28;20557;-72
2023/10/10 13:31:44;;;;;;;12.20;7.00;;;23.50;99.90;;;;;;5108098;28;20446;-72
2023/10/10 13:34:11;;;;;;;19.33;7.83;;;23.60;99.90;;;;;;5099257;28;20533;-71
2023/10/10 13:36:38;;;;;;;14.03;7.97;;;23.70;99.90;;;;;;5100425;28;21030;-71
2023/10/10 13:39:07;;;;;;;10.07;6.70;;;23.80;99.90;;;;;;5105484;28;20496;-73
2023/10/10 13:41:35;;;;;;;10.07;6.40;;;23.90;99.90;;;;;;5103043;28;20465;-71
2023/10/10 13:44:03;;;;;;;17.90;7.40;;;23.90;99.90;;;;;;5093913;28;20547;-71
2023/10/10 13:46:33;;;;;;;13.07;7.30;;;23.90;99.90;;;;;;5096556;28;20542;-71
2023/10/10 13:49:00;;;;;;;12.40;6.87;;;24.00;99.90;;;;;;5105340;28;20442;-71
2023/10/10 13:51:28;;;;;;;17.50;7.57;;;24.10;99.90;;;;;;5098212;28;20537;-72
2023/10/10 13:53:56;;;;;;;14.50;6.57;;;24.30;99.90;;;;;;5092733;28;20533;-71
2023/10/10 13:56:30;;;;;;;20.33;7.93;;;24.30;99.90;;;;;;5092951;28;20470;-71
2023/10/10 13:58:57;;;;;;;14.83;7.20;;;24.30;99.90;;;;;;5092196;28;20442;-73
2023/10/10 14:01:29;;;;;;;18.00;7.53;;;24.00;99.90;;;;;;5092542;28;20849;-71
2023/10/10 14:04:00;;;;;;;13.03;7.00;;;23.80;99.90;;;;;;5091894;28;21010;-71
2023/10/10 14:06:33;;;;;;;13.53;7.00;;;23.70;99.90;;;;;;5107106;28;20485;-71
2023/10/10 14:09:00;;;;;;;18.53;8.00;;;23.50;99.90;;;;;;5099937;28;20458;-72
2023/10/10 14:11:32;;;;;;;12.37;6.60;;;23.50;99.90;;;;;;5092623;28;20442;-71
2023/10/10 14:13:59;;;;;;;19.20;7.70;;;23.40;99.90;;;;;;5098286;28;20459;-72
2023/10/10 14:16:25;;;;;;;12.57;7.03;;;23.60;99.90;;;;;;5101614;28;20468;-72
2023/10/10 14:18:52;;;;;;;10.07;6.27;;;23.80;99.90;;;;;;5093905;28;20939;-72
2023/10/10 14:21:25;;;;;;;16.70;6.87;;;23.80;99.90;;;;;;5107290;28;20439;-72
2023/10/10 14:23:55;;;;;;;16.43;6.93;;;23.80;99.90;;;;;;5107814;28;20481;-72
2023/10/10 14:26:27;;;;;;;14.27;7.53;;;23.60;99.90;;;;;;5102780;28;20477;-72
2023/10/10 14:28:57;;;;;;;18.23;7.40;;;23.40;99.90;;;;;;5099144;28;20935;-72
2023/10/10 14:31:27;;;;;;;12.10;6.33;;;23.30;99.90;;;;;;5100987;28;20511;-72
2023/10/10 14:33:56;;;;;;;20.27;8.50;;;23.30;99.90;;;;;;5099406;28;20544;-72
2023/10/10 14:36:22;;;;;;;13.07;6.27;;;23.20;99.90;;;;;;5092949;28;20474;-72
2023/10/10 14:38:50;;;;;;;16.80;7.13;;;23.30;99.90;;;;;;5092665;28;20466;-72
2023/10/10 14:41:18;;;;;;;12.63;6.60;;;23.40;99.90;;;;;;5092932;28;20451;-72
2023/10/10 14:43:47;;;;;;;11.87;7.10;;;23.20;99.90;;;;;;5092680;28;20905;-71
2023/10/10 14:46:21;;;;;;;16.00;7.40;;;23.20;99.90;;;;;;5107061;28;20852;-71
2023/10/10 14:48:48;;;;;;;17.20;7.40;;;23.10;99.90;;;;;;5108835;27;20846;-72